sensor_id;sensor_type;location;lat;lon;timestamp;P1;durP1;ratioP1;P2;durP2;ratioP2
21438;SDS011;10880;50.302;18.736;2023-10-31T00:01:36;2.10;;;1.80;;
21438;SDS011;10880;50.302;18.736;2023-10-31T00:04:02;2.53;;;2.10;;
21438;SDS011;10880;50.302;18.736;2023-10-31T00:06:29;2.30;;;2.10;;
21438;SDS011;10880;50.302;18.736;2023-10-31T00:08:55;2.00;;;1.90;;
21438;SDS011;10880;50.302;18.736;2023-10-31T00:11:22;2.97;;;2.17;;
21438;SDS011;10880;50.302;18.736;2023-10-31T00:13:48;4.40;;;1.70;;
21438;SDS011;10880;50.302;18.736;2023-10-31T00:16:15;2.97;;;1.77;;
21438;SDS011;10880;50.302;18.736;2023-10-31T00:18:41;3.23;;;1.90;;
21438;SDS011;10880;50.302;18.736;2023-10-31T00:21:07;3.07;;;2.10;;
21438;SDS011;10880;50.302;18.736;2023-10-31T00:23:34;2.10;;;1.87;;
21438;SDS011;10880;50.302;18.736;2023-10-31T00:26:12;1.73;;;1.63;;
21438;SDS011;10880;50.302;18.736;2023-10-31T00:28:44;2.13;;;1.80;;
21438;SDS011;10880;50.302;18.736;2023-10-31T00:31:10;1.93;;;1.83;;
21438;SDS011;10880;50.302;18.736;2023-10-31T00:33:37;3.03;;;2.27;;
21438;SDS011;10880;50.302;18.736;2023-10-31T00:36:04;2.20;;;1.97;;
21438;SDS011;10880;50.302;18.736;2023-10-31T00:38:30;1.87;;;1.57;;
21438;SDS011;10880;50.302;18.736;2023-10-31T00:40:56;2.10;;;1.70;;
21438;SDS011;10880;50.302;18.736;2023-10-31T00:43:23;1.83;;;1.70;;
21438;SDS011;10880;50.302;18.736;2023-10-31T00:45:49;2.43;;;1.90;;
21438;SDS011;10880;50.302;18.736;2023-10-31T00:48:16;2.03;;;1.83;;
21438;SDS011;10880;50.302;18.736;2023-10-31T00:50:43;1.93;;;1.83;;
21438;SDS011;10880;50.302;18.736;2023-10-31T00:53:10;2.77;;;2.00;;
21438;SDS011;10880;50.302;18.736;2023-10-31T00:55:37;2.07;;;1.80;;
21438;SDS011;10880;50.302;18.736;2023-10-31T00:58:03;2.77;;;1.90;;
21438;SDS011;10880;50.302;18.736;2023-10-31T01:00:30;2.40;;;1.80;;
21438;SDS011;10880;50.302;18.736;2023-10-31T01:02:57;1.50;;;1.40;;
21438;SDS011;10880;50.302;18.736;2023-10-31T01:05:23;1.80;;;1.60;;
21438;SDS011;10880;50.302;18.736;2023-10-31T01:07:50;1.53;;;1.43;;
21438;SDS011;10880;50.302;18.736;2023-10-31T01:10:16;1.83;;;1.70;;
21438;SDS011;10880;50.302;18.736;2023-10-31T01:12:43;1.97;;;1.50;;
21438;SDS011;10880;50.302;18.736;2023-10-31T01:15:09;1.57;;;1.47;;
21438;SDS011;10880;50.302;18.736;2023-10-31T01:17:36;1.60;;;1.47;;
21438;SDS011;10880;50.302;18.736;2023-10-31T01:20:03;2.50;;;1.57;;
21438;SDS011;10880;50.302;18.736;2023-10-31T01:22:31;1.70;;;1.60;;
21438;SDS011;10880;50.302;18.736;2023-10-31T01:24:57;1.60;;;1.50;;
21438;SDS011;10880;50.302;18.736;2023-10-31T01:27:24;2.53;;;1.80;;
21438;SDS011;10880;50.302;18.736;2023-10-31T01:29:50;1.57;;;1.47;;
21438;SDS011;10880;50.302;18.736;2023-10-31T01:32:17;1.40;;;1.30;;
21438;SDS011;10880;50.302;18.736;2023-10-31T01:34:44;1.83;;;1.60;;
21438;SDS011;10880;50.302;18.736;2023-10-31T01:37:10;1.73;;;1.60;;
21438;SDS011;10880;50.302;18.736;2023-10-31T01:39:37;2.23;;;1.50;;
21438;SDS011;10880;50.302;18.736;2023-10-31T01:42:03;2.33;;;1.53;;
21438;SDS011;10880;50.302;18.736;2023-10-31T01:44:30;2.03;;;1.80;;
21438;SDS011;10880;50.302;18.736;2023-10-31T01:46:57;2.67;;;1.83;;
21438;SDS011;10880;50.302;18.736;2023-10-31T01:49:23;3.10;;;1.70;;
21438;SDS011;10880;50.302;18.736;2023-10-31T01:51:50;1.90;;;1.70;;
21438;SDS011;10880;50.302;18.736;2023-10-31T01:54:17;1.50;;;1.40;;
21438;SDS011;10880;50.302;18.736;2023-10-31T01:56:43;1.40;;;1.30;;
21438;SDS011;10880;50.302;18.736;2023-10-31T01:59:11;9.93;;;1.93;;
21438;SDS011;10880;50.302;18.736;2023-10-31T02:01:38;1.40;;;1.30;;
21438;SDS011;10880;50.302;18.736;2023-10-31T02:04:08;2.60;;;1.83;;
21438;SDS011;10880;50.302;18.736;2023-10-31T02:06:34;1.77;;;1.50;;
21438;SDS011;10880;50.302;18.736;2023-10-31T02:09:00;2.00;;;1.70;;
21438;SDS011;10880;50.302;18.736;2023-10-31T02:11:27;1.73;;;1.63;;
21438;SDS011;10880;50.302;18.736;2023-10-31T02:13:53;2.40;;;1.60;;
21438;SDS011;10880;50.302;18.736;2023-10-31T02:16:20;1.60;;;1.50;;
21438;SDS011;10880;50.302;18.736;2023-10-31T02:18:46;2.37;;;1.60;;
21438;SDS011;10880;50.302;18.736;2023-10-31T02:21:12;1.60;;;1.50;;
21438;SDS011;10880;50.302;18.736;2023-10-31T02:23:39;1.47;;;1.43;;
21438;SDS011;10880;50.302;18.736;2023-10-31T02:26:05;1.63;;;1.53;;
21438;SDS011;10880;50.302;18.736;2023-10-31T02:28:32;1.50;;;1.40;;
21438;SDS011;10880;50.302;18.736;2023-10-31T02:30:59;2.80;;;1.80;;
21438;SDS011;10880;50.302;18.736;2023-10-31T02:33:25;1.90;;;1.67;;
21438;SDS011;10880;50.302;18.736;2023-10-31T02:35:52;1.67;;;1.57;;
21438;SDS011;10880;50.302;18.736;2023-10-31T02:38:20;2.87;;;1.70;;
21438;SDS011;10880;50.302;18.736;2023-10-31T02:40:47;2.83;;;1.70;;
21438;SDS011;10880;50.302;18.736;2023-10-31T02:43:13;3.00;;;1.60;;
21438;SDS011;10880;50.302;18.736;2023-10-31T02:45:40;2.10;;;1.60;;
21438;SDS011;10880;50.302;18.736;2023-10-31T02:48:06;2.03;;;1.80;;
21438;SDS011;10880;50.302;18.736;2023-10-31T02:50:33;1.80;;;1.70;;
21438;SDS011;10880;50.302;18.736;2023-10-31T02:53:00;3.73;;;1.87;;
21438;SDS011;10880;50.302;18.736;2023-10-31T02:55:26;3.53;;;1.60;;
21438;SDS011;10880;50.302;18.736;2023-10-31T02:57:52;2.97;;;1.70;;
21438;SDS011;10880;50.302;18.736;2023-10-31T03:00:19;2.00;;;1.80;;
21438;SDS011;10880;50.302;18.736;2023-10-31T03:02:47;1.97;;;1.70;;
21438;SDS011;10880;50.302;18.736;2023-10-31T03:05:13;1.80;;;1.70;;
21438;SDS011;10880;50.302;18.736;2023-10-31T03:07:40;1.70;;;1.47;;
21438;SDS011;10880;50.302;18.736;2023-10-31T03:10:07;2.40;;;1.63;;
21438;SDS011;10880;50.302;18.736;2023-10-31T03:12:33;2.03;;;1.70;;
21438;SDS011;10880;50.302;18.736;2023-10-31T03:15:00;2.23;;;1.63;;
21438;SDS011;10880;50.302;18.736;2023-10-31T03:17:26;4.03;;;1.90;;
21438;SDS011;10880;50.302;18.736;2023-10-31T03:19:53;2.30;;;1.70;;
21438;SDS011;10880;50.302;18.736;2023-10-31T03:22:20;5.07;;;1.87;;
21438;SDS011;10880;50.302;18.736;2023-10-31T03:24:46;1.73;;;1.50;;
21438;SDS011;10880;50.302;18.736;2023-10-31T03:27:13;1.83;;;1.57;;
21438;SDS011;10880;50.302;18.736;2023-10-31T03:29:39;2.10;;;1.90;;
21438;SDS011;10880;50.302;18.736;2023-10-31T03:32:06;2.20;;;1.70;;
21438;SDS011;10880;50.302;18.736;2023-10-31T03:34:33;2.67;;;1.70;;
21438;SDS011;10880;50.302;18.736;2023-10-31T03:36:59;1.63;;;1.50;;
21438;SDS011;10880;50.302;18.736;2023-10-31T03:39:26;1.97;;;1.53;;
21438;SDS011;10880;50.302;18.736;2023-10-31T03:41:52;1.67;;;1.50;;
21438;SDS011;10880;50.302;18.736;2023-10-31T03:44:19;1.50;;;1.40;;
21438;SDS011;10880;50.302;18.736;2023-10-31T03:46:45;1.70;;;1.60;;
21438;SDS011;10880;50.302;18.736;2023-10-31T03:49:12;2.60;;;1.60;;
21438;SDS011;10880;50.302;18.736;2023-10-31T03:51:38;1.60;;;1.50;;
21438;SDS011;10880;50.302;18.736;2023-10-31T03:54:05;1.90;;;1.70;;
21438;SDS011;10880;50.302;18.736;2023-10-31T03:56:38;1.77;;;1.67;;
21438;SDS011;10880;50.302;18.736;2023-10-31T03:59:08;1.70;;;1.60;;
21438;SDS011;10880;50.302;18.736;2023-10-31T04:01:35;2.77;;;1.97;;
21438;SDS011;10880;50.302;18.736;2023-10-31T04:04:02;1.70;;;1.60;;
21438;SDS011;10880;50.302;18.736;2023-10-31T04:06:28;2.53;;;1.67;;
21438;SDS011;10880;50.302;18.736;2023-10-31T04:08:55;2.10;;;1.90;;
21438;SDS011;10880;50.302;18.736;2023-10-31T04:11:21;2.67;;;1.77;;
21438;SDS011;10880;50.302;18.736;2023-10-31T04:13:48;2.80;;;1.70;;
21438;SDS011;10880;50.302;18.736;2023-10-31T04:16:14;2.83;;;2.00;;
21438;SDS011;10880;50.302;18.736;2023-10-31T04:18:40;2.10;;;1.70;;
21438;SDS011;10880;50.302;18.736;2023-10-31T04:21:07;2.07;;;1.70;;
21438;SDS011;10880;50.302;18.736;2023-10-31T04:23:33;1.50;;;1.40;;
21438;SDS011;10880;50.302;18.736;2023-10-31T04:26:00;4.23;;;2.07;;
21438;SDS011;10880;50.302;18.736;2023-10-31T04:28:27;3.00;;;1.80;;
21438;SDS011;10880;50.302;18.736;2023-10-31T04:30:53;1.70;;;1.60;;
21438;SDS011;10880;50.302;18.736;2023-10-31T04:33:20;1.83;;;1.70;;
21438;SDS011;10880;50.302;18.736;2023-10-31T04:35:47;2.30;;;1.60;;
21438;SDS011;10880;50.302;18.736;2023-10-31T04:38:13;2.37;;;1.70;;
21438;SDS011;10880;50.302;18.736;2023-10-31T04:40:40;1.70;;;1.60;;
21438;SDS011;10880;50.302;18.736;2023-10-31T04:43:06;2.10;;;1.90;;
21438;SDS011;10880;50.302;18.736;2023-10-31T04:45:33;2.73;;;2.10;;
21438;SDS011;10880;50.302;18.736;2023-10-31T04:48:00;2.50;;;1.70;;
21438;SDS011;10880;50.302;18.736;2023-10-31T04:50:26;2.63;;;2.00;;
21438;SDS011;10880;50.302;18.736;2023-10-31T04:52:53;3.03;;;1.93;;
21438;SDS011;10880;50.302;18.736;2023-10-31T04:55:19;3.20;;;2.20;;
21438;SDS011;10880;50.302;18.736;2023-10-31T04:57:45;2.33;;;2.00;;
21438;SDS011;10880;50.302;18.736;2023-10-31T05:00:12;3.10;;;2.23;;
21438;SDS011;10880;50.302;18.736;2023-10-31T05:02:39;2.87;;;1.90;;
21438;SDS011;10880;50.302;18.736;2023-10-31T05:05:05;3.27;;;2.20;;
21438;SDS011;10880;50.302;18.736;2023-10-31T05:07:32;4.67;;;2.00;;
21438;SDS011;10880;50.302;18.736;2023-10-31T05:09:59;3.77;;;1.70;;
21438;SDS011;10880;50.302;18.736;2023-10-31T05:12:25;2.57;;;1.70;;
21438;SDS011;10880;50.302;18.736;2023-10-31T05:14:51;1.80;;;1.70;;
21438;SDS011;10880;50.302;18.736;2023-10-31T05:17:18;1.53;;;1.43;;
21438;SDS011;10880;50.302;18.736;2023-10-31T05:19:44;2.30;;;1.80;;
21438;SDS011;10880;50.302;18.736;2023-10-31T05:22:11;2.80;;;1.70;;
21438;SDS011;10880;50.302;18.736;2023-10-31T05:24:37;2.43;;;1.90;;
21438;SDS011;10880;50.302;18.736;2023-10-31T05:27:04;1.80;;;1.70;;
21438;SDS011;10880;50.302;18.736;2023-10-31T05:29:33;2.10;;;1.73;;
21438;SDS011;10880;50.302;18.736;2023-10-31T05:32:00;3.27;;;1.73;;
21438;SDS011;10880;50.302;18.736;2023-10-31T05:34:27;2.50;;;1.90;;
21438;SDS011;10880;50.302;18.736;2023-10-31T05:36:53;2.23;;;2.03;;
21438;SDS011;10880;50.302;18.736;2023-10-31T05:39:19;2.10;;;1.60;;
21438;SDS011;10880;50.302;18.736;2023-10-31T05:41:46;1.90;;;1.73;;
21438;SDS011;10880;50.302;18.736;2023-10-31T05:44:12;2.80;;;2.00;;
21438;SDS011;10880;50.302;18.736;2023-10-31T05:46:39;2.80;;;1.90;;
21438;SDS011;10880;50.302;18.736;2023-10-31T05:49:07;3.40;;;2.20;;
21438;SDS011;10880;50.302;18.736;2023-10-31T05:51:34;2.30;;;1.90;;
21438;SDS011;10880;50.302;18.736;2023-10-31T05:54:01;2.07;;;1.87;;
21438;SDS011;10880;50.302;18.736;2023-10-31T05:56:32;1.80;;;1.70;;
21438;SDS011;10880;50.302;18.736;2023-10-31T05:58:58;2.43;;;1.90;;
21438;SDS011;10880;50.302;18.736;2023-10-31T06:01:25;3.13;;;2.13;;
21438;SDS011;10880;50.302;18.736;2023-10-31T06:03:51;2.73;;;2.00;;
21438;SDS011;10880;50.302;18.736;2023-10-31T06:06:17;1.73;;;1.63;;
21438;SDS011;10880;50.302;18.736;2023-10-31T06:08:44;1.97;;;1.80;;
21438;SDS011;10880;50.302;18.736;2023-10-31T06:11:11;2.00;;;1.90;;
21438;SDS011;10880;50.302;18.736;2023-10-31T06:13:41;7.27;;;1.90;;
21438;SDS011;10880;50.302;18.736;2023-10-31T06:16:07;2.13;;;1.80;;
21438;SDS011;10880;50.302;18.736;2023-10-31T06:18:34;1.83;;;1.70;;
21438;SDS011;10880;50.302;18.736;2023-10-31T06:21:01;1.70;;;1.60;;
21438;SDS011;10880;50.302;18.736;2023-10-31T06:23:27;2.07;;;1.70;;
21438;SDS011;10880;50.302;18.736;2023-10-31T06:25:54;4.07;;;1.93;;
21438;SDS011;10880;50.302;18.736;2023-10-31T06:28:20;2.30;;;1.80;;
21438;SDS011;10880;50.302;18.736;2023-10-31T06:30:47;3.20;;;2.10;;
21438;SDS011;10880;50.302;18.736;2023-10-31T06:33:13;3.13;;;2.00;;
21438;SDS011;10880;50.302;18.736;2023-10-31T06:35:40;3.90;;;2.30;;
21438;SDS011;10880;50.302;18.736;2023-10-31T06:38:06;2.80;;;1.70;;
21438;SDS011;10880;50.302;18.736;2023-10-31T06:40:33;7.17;;;2.20;;
21438;SDS011;10880;50.302;18.736;2023-10-31T06:43:00;2.33;;;1.73;;
21438;SDS011;10880;50.302;18.736;2023-10-31T06:45:27;2.20;;;1.70;;
21438;SDS011;10880;50.302;18.736;2023-10-31T06:47:54;3.20;;;1.90;;
21438;SDS011;10880;50.302;18.736;2023-10-31T06:50:20;2.27;;;1.80;;
21438;SDS011;10880;50.302;18.736;2023-10-31T06:52:47;2.27;;;1.80;;
21438;SDS011;10880;50.302;18.736;2023-10-31T06:55:13;2.63;;;1.90;;
21438;SDS011;10880;50.302;18.736;2023-10-31T06:57:40;2.10;;;1.90;;
21438;SDS011;10880;50.302;18.736;2023-10-31T07:00:06;2.97;;;1.90;;
21438;SDS011;10880;50.302;18.736;2023-10-31T07:02:34;2.10;;;1.83;;
21438;SDS011;10880;50.302;18.736;2023-10-31T07:05:01;2.77;;;1.90;;
21438;SDS011;10880;50.302;18.736;2023-10-31T07:07:29;2.50;;;1.80;;
21438;SDS011;10880;50.302;18.736;2023-10-31T07:09:55;4.53;;;2.03;;
21438;SDS011;10880;50.302;18.736;2023-10-31T07:12:22;2.97;;;1.90;;
21438;SDS011;10880;50.302;18.736;2023-10-31T07:14:49;2.20;;;1.90;;
21438;SDS011;10880;50.302;18.736;2023-10-31T07:17:16;3.00;;;2.00;;
21438;SDS011;10880;50.302;18.736;2023-10-31T07:19:43;2.20;;;2.00;;
21438;SDS011;10880;50.302;18.736;2023-10-31T07:22:09;5.00;;;2.60;;
21438;SDS011;10880;50.302;18.736;2023-10-31T07:24:36;3.50;;;2.37;;
21438;SDS011;10880;50.302;18.736;2023-10-31T07:27:03;2.17;;;1.93;;
21438;SDS011;10880;50.302;18.736;2023-10-31T07:29:30;2.00;;;1.80;;
21438;SDS011;10880;50.302;18.736;2023-10-31T07:31:56;2.93;;;1.90;;
21438;SDS011;10880;50.302;18.736;2023-10-31T07:34:22;1.97;;;1.77;;
21438;SDS011;10880;50.302;18.736;2023-10-31T07:36:49;2.17;;;1.87;;
21438;SDS011;10880;50.302;18.736;2023-10-31T07:39:15;3.27;;;1.80;;
21438;SDS011;10880;50.302;18.736;2023-10-31T07:41:42;2.20;;;2.00;;
21438;SDS011;10880;50.302;18.736;2023-10-31T07:44:09;2.67;;;2.00;;
21438;SDS011;10880;50.302;18.736;2023-10-31T07:46:36;2.43;;;1.87;;
21438;SDS011;10880;50.302;18.736;2023-10-31T07:49:02;1.67;;;1.57;;
21438;SDS011;10880;50.302;18.736;2023-10-31T07:51:29;3.07;;;1.50;;
21438;SDS011;10880;50.302;18.736;2023-10-31T07:53:55;1.83;;;1.60;;
21438;SDS011;10880;50.302;18.736;2023-10-31T07:56:23;2.53;;;1.80;;
21438;SDS011;10880;50.302;18.736;2023-10-31T07:58:51;1.93;;;1.77;;
21438;SDS011;10880;50.302;18.736;2023-10-31T08:01:18;2.33;;;2.00;;
21438;SDS011;10880;50.302;18.736;2023-10-31T08:03:48;3.23;;;2.00;;
21438;SDS011;10880;50.302;18.736;2023-10-31T08:06:14;2.93;;;2.13;;
21438;SDS011;10880;50.302;18.736;2023-10-31T08:08:41;4.73;;;2.20;;
21438;SDS011;10880;50.302;18.736;2023-10-31T08:11:08;2.93;;;2.30;;
21438;SDS011;10880;50.302;18.736;2023-10-31T08:13:36;4.40;;;2.33;;
21438;SDS011;10880;50.302;18.736;2023-10-31T08:16:04;3.10;;;2.40;;
21438;SDS011;10880;50.302;18.736;2023-10-31T08:18:32;3.30;;;2.53;;
21438;SDS011;10880;50.302;18.736;2023-10-31T08:20:58;2.60;;;2.20;;
21438;SDS011;10880;50.302;18.736;2023-10-31T08:23:25;4.70;;;2.47;;
21438;SDS011;10880;50.302;18.736;2023-10-31T08:25:51;2.77;;;2.47;;
21438;SDS011;10880;50.302;18.736;2023-10-31T08:28:18;2.43;;;2.20;;
21438;SDS011;10880;50.302;18.736;2023-10-31T08:30:44;2.53;;;2.20;;
21438;SDS011;10880;50.302;18.736;2023-10-31T08:33:11;2.53;;;2.17;;
21438;SDS011;10880;50.302;18.736;2023-10-31T08:35:37;3.90;;;2.40;;
21438;SDS011;10880;50.302;18.736;2023-10-31T08:38:03;3.40;;;2.30;;
21438;SDS011;10880;50.302;18.736;2023-10-31T08:40:30;3.03;;;2.13;;
21438;SDS011;10880;50.302;18.736;2023-10-31T08:42:56;2.53;;;2.20;;
21438;SDS011;10880;50.302;18.736;2023-10-31T08:45:23;3.20;;;2.40;;
21438;SDS011;10880;50.302;18.736;2023-10-31T08:47:50;3.70;;;2.47;;
21438;SDS011;10880;50.302;18.736;2023-10-31T08:50:17;2.30;;;1.90;;
21438;SDS011;10880;50.302;18.736;2023-10-31T08:52:43;4.10;;;2.03;;
21438;SDS011;10880;50.302;18.736;2023-10-31T08:55:10;2.87;;;2.33;;
21438;SDS011;10880;50.302;18.736;2023-10-31T08:57:37;2.20;;;2.00;;
21438;SDS011;10880;50.302;18.736;2023-10-31T09:00:04;3.33;;;2.80;;
21438;SDS011;10880;50.302;18.736;2023-10-31T09:02:32;3.60;;;2.13;;
21438;SDS011;10880;50.302;18.736;2023-10-31T09:04:59;2.40;;;2.20;;
21438;SDS011;10880;50.302;18.736;2023-10-31T09:07:26;7.70;;;2.80;;
21438;SDS011;10880;50.302;18.736;2023-10-31T09:09:52;2.97;;;2.40;;
21438;SDS011;10880;50.302;18.736;2023-10-31T09:12:19;3.33;;;2.30;;
21438;SDS011;10880;50.302;18.736;2023-10-31T09:14:46;4.40;;;2.83;;
21438;SDS011;10880;50.302;18.736;2023-10-31T09:17:13;4.00;;;2.40;;
21438;SDS011;10880;50.302;18.736;2023-10-31T09:19:39;3.60;;;2.63;;
21438;SDS011;10880;50.302;18.736;2023-10-31T09:22:06;3.00;;;2.37;;
21438;SDS011;10880;50.302;18.736;2023-10-31T09:24:33;3.60;;;2.40;;
21438;SDS011;10880;50.302;18.736;2023-10-31T09:27:00;3.13;;;2.43;;
21438;SDS011;10880;50.302;18.736;2023-10-31T09:29:27;2.73;;;2.47;;
21438;SDS011;10880;50.302;18.736;2023-10-31T09:31:56;2.43;;;2.10;;
21438;SDS011;10880;50.302;18.736;2023-10-31T09:34:24;2.90;;;2.37;;
21438;SDS011;10880;50.302;18.736;2023-10-31T09:36:51;2.97;;;2.63;;
21438;SDS011;10880;50.302;18.736;2023-10-31T09:39:18;2.80;;;2.50;;
21438;SDS011;10880;50.302;18.736;2023-10-31T09:41:46;2.60;;;2.40;;
21438;SDS011;10880;50.302;18.736;2023-10-31T09:44:13;4.10;;;2.30;;
21438;SDS011;10880;50.302;18.736;2023-10-31T09:46:39;4.67;;;2.80;;
21438;SDS011;10880;50.302;18.736;2023-10-31T09:49:07;4.17;;;2.50;;
21438;SDS011;10880;50.302;18.736;2023-10-31T09:51:34;3.57;;;2.50;;
21438;SDS011;10880;50.302;18.736;2023-10-31T09:54:02;2.43;;;2.23;;
21438;SDS011;10880;50.302;18.736;2023-10-31T09:56:29;4.30;;;2.93;;
21438;SDS011;10880;50.302;18.736;2023-10-31T09:59:01;3.37;;;2.50;;
21438;SDS011;10880;50.302;18.736;2023-10-31T10:01:28;3.30;;;2.33;;
21438;SDS011;10880;50.302;18.736;2023-10-31T10:03:56;2.77;;;2.47;;
21438;SDS011;10880;50.302;18.736;2023-10-31T10:06:22;4.23;;;2.80;;
21438;SDS011;10880;50.302;18.736;2023-10-31T10:08:49;3.27;;;2.30;;
21438;SDS011;10880;50.302;18.736;2023-10-31T10:11:16;2.37;;;2.17;;
21438;SDS011;10880;50.302;18.736;2023-10-31T10:13:43;2.47;;;2.27;;
21438;SDS011;10880;50.302;18.736;2023-10-31T10:16:09;3.70;;;2.30;;
21438;SDS011;10880;50.302;18.736;2023-10-31T10:18:36;2.97;;;2.33;;
21438;SDS011;10880;50.302;18.736;2023-10-31T10:21:06;2.33;;;2.07;;
21438;SDS011;10880;50.302;18.736;2023-10-31T10:23:34;4.07;;;2.10;;
21438;SDS011;10880;50.302;18.736;2023-10-31T10:26:01;2.27;;;2.00;;
21438;SDS011;10880;50.302;18.736;2023-10-31T10:28:28;2.10;;;1.90;;
21438;SDS011;10880;50.302;18.736;2023-10-31T10:30:59;1.60;;;1.50;;
21438;SDS011;10880;50.302;18.736;2023-10-31T10:33:25;1.90;;;1.80;;
21438;SDS011;10880;50.302;18.736;2023-10-31T10:35:52;1.70;;;1.60;;
21438;SDS011;10880;50.302;18.736;2023-10-31T10:38:21;2.63;;;1.87;;
21438;SDS011;10880;50.302;18.736;2023-10-31T10:40:49;1.97;;;1.70;;
21438;SDS011;10880;50.302;18.736;2023-10-31T10:43:22;1.87;;;1.77;;
21438;SDS011;10880;50.302;18.736;2023-10-31T10:45:59;1.80;;;1.70;;
21438;SDS011;10880;50.302;18.736;2023-10-31T10:48:28;1.70;;;1.60;;
21438;SDS011;10880;50.302;18.736;2023-10-31T10:50:59;1.70;;;1.60;;
21438;SDS011;10880;50.302;18.736;2023-10-31T10:53:38;1.83;;;1.50;;
21438;SDS011;10880;50.302;18.736;2023-10-31T10:56:39;2.63;;;1.67;;
21438;SDS011;10880;50.302;18.736;2023-10-31T10:59:18;1.70;;;1.60;;
21438;SDS011;10880;50.302;18.736;2023-10-31T11:01:46;2.03;;;1.70;;
21438;SDS011;10880;50.302;18.736;2023-10-31T11:04:14;2.37;;;1.70;;
21438;SDS011;10880;50.302;18.736;2023-10-31T11:06:42;1.63;;;1.53;;
21438;SDS011;10880;50.302;18.736;2023-10-31T11:09:10;1.70;;;1.60;;
21438;SDS011;10880;50.302;18.736;2023-10-31T11:11:39;1.80;;;1.70;;
21438;SDS011;10880;50.302;18.736;2023-10-31T11:14:07;1.80;;;1.70;;
21438;SDS011;10880;50.302;18.736;2023-10-31T11:16:39;2.10;;;1.90;;
21438;SDS011;10880;50.302;18.736;2023-10-31T11:19:17;1.80;;;1.70;;
21438;SDS011;10880;50.302;18.736;2023-10-31T11:22:00;1.73;;;1.63;;
21438;SDS011;10880;50.302;18.736;2023-10-31T11:24:28;1.70;;;1.60;;
21438;SDS011;10880;50.302;18.736;2023-10-31T11:26:58;1.63;;;1.53;;
21438;SDS011;10880;50.302;18.736;2023-10-31T11:29:27;2.70;;;1.63;;
21438;SDS011;10880;50.302;18.736;2023-10-31T11:31:56;1.80;;;1.70;;
21438;SDS011;10880;50.302;18.736;2023-10-31T11:34:23;2.23;;;1.73;;
21438;SDS011;10880;50.302;18.736;2023-10-31T11:36:52;1.80;;;1.60;;
21438;SDS011;10880;50.302;18.736;2023-10-31T11:39:20;1.77;;;1.60;;
21438;SDS011;10880;50.302;18.736;2023-10-31T11:41:55;1.70;;;1.60;;
21438;SDS011;10880;50.302;18.736;2023-10-31T11:44:22;1.73;;;1.63;;
21438;SDS011;10880;50.302;18.736;2023-10-31T11:46:51;1.70;;;1.60;;
21438;SDS011;10880;50.302;18.736;2023-10-31T11:52:17;1.70;;;1.60;;
21438;SDS011;10880;50.302;18.736;2023-10-31T11:54:44;2.27;;;1.60;;
21438;SDS011;10880;50.302;18.736;2023-10-31T11:57:11;1.70;;;1.60;;
21438;SDS011;10880;50.302;18.736;2023-10-31T11:59:38;3.13;;;1.70;;
21438;SDS011;10880;50.302;18.736;2023-10-31T12:02:15;1.90;;;1.80;;
21438;SDS011;10880;50.302;18.736;2023-10-31T12:04:41;2.03;;;1.70;;
21438;SDS011;10880;50.302;18.736;2023-10-31T12:07:08;1.80;;;1.70;;
21438;SDS011;10880;50.302;18.736;2023-10-31T12:09:47;1.73;;;1.60;;
21438;SDS011;10880;50.302;18.736;2023-10-31T12:12:15;2.03;;;1.70;;
21438;SDS011;10880;50.302;18.736;2023-10-31T12:14:41;1.50;;;1.40;;
21438;SDS011;10880;50.302;18.736;2023-10-31T12:17:08;1.90;;;1.70;;
21438;SDS011;10880;50.302;18.736;2023-10-31T12:19:36;1.83;;;1.60;;
21438;SDS011;10880;50.302;18.736;2023-10-31T12:22:11;1.60;;;1.50;;
21438;SDS011;10880;50.302;18.736;2023-10-31T12:24:39;1.60;;;1.50;;
21438;SDS011;10880;50.302;18.736;2023-10-31T12:27:09;3.47;;;1.53;;
21438;SDS011;10880;50.302;18.736;2023-10-31T12:29:36;1.67;;;1.57;;
21438;SDS011;10880;50.302;18.736;2023-10-31T12:32:03;1.77;;;1.50;;
21438;SDS011;10880;50.302;18.736;2023-10-31T12:34:30;1.70;;;1.50;;
21438;SDS011;10880;50.302;18.736;2023-10-31T12:37:00;1.40;;;1.30;;
21438;SDS011;10880;50.302;18.736;2023-10-31T12:39:29;1.43;;;1.33;;
21438;SDS011;10880;50.302;18.736;2023-10-31T12:41:56;1.60;;;1.50;;
21438;SDS011;10880;50.302;18.736;2023-10-31T12:44:24;1.50;;;1.40;;
21438;SDS011;10880;50.302;18.736;2023-10-31T12:46:53;1.60;;;1.50;;
21438;SDS011;10880;50.302;18.736;2023-10-31T12:49:19;1.70;;;1.60;;
21438;SDS011;10880;50.302;18.736;2023-10-31T12:51:57;1.60;;;1.50;;
21438;SDS011;10880;50.302;18.736;2023-10-31T12:54:33;2.03;;;1.70;;
21438;SDS011;10880;50.302;18.736;2023-10-31T12:57:01;1.40;;;1.30;;
21438;SDS011;10880;50.302;18.736;2023-10-31T12:59:30;1.70;;;1.60;;
21438;SDS011;10880;50.302;18.736;2023-10-31T13:01:58;1.67;;;1.57;;
21438;SDS011;10880;50.302;18.736;2023-10-31T13:04:26;2.13;;;1.67;;
21438;SDS011;10880;50.302;18.736;2023-10-31T13:09:27;1.77;;;1.67;;
21438;SDS011;10880;50.302;18.736;2023-10-31T13:11:59;1.83;;;1.70;;
21438;SDS011;10880;50.302;18.736;2023-10-31T13:14:26;1.80;;;1.63;;
21438;SDS011;10880;50.302;18.736;2023-10-31T13:16:52;1.73;;;1.63;;
21438;SDS011;10880;50.302;18.736;2023-10-31T13:19:19;1.57;;;1.47;;
21438;SDS011;10880;50.302;18.736;2023-10-31T13:21:46;1.80;;;1.70;;
21438;SDS011;10880;50.302;18.736;2023-10-31T13:24:12;1.60;;;1.50;;
21438;SDS011;10880;50.302;18.736;2023-10-31T13:26:39;1.63;;;1.53;;
21438;SDS011;10880;50.302;18.736;2023-10-31T13:29:05;1.77;;;1.60;;
21438;SDS011;10880;50.302;18.736;2023-10-31T13:31:32;1.70;;;1.60;;
21438;SDS011;10880;50.302;18.736;2023-10-31T13:33:58;1.70;;;1.60;;
21438;SDS011;10880;50.302;18.736;2023-10-31T13:36:24;1.90;;;1.60;;
21438;SDS011;10880;50.302;18.736;2023-10-31T13:38:51;1.70;;;1.60;;
21438;SDS011;10880;50.302;18.736;2023-10-31T13:41:18;2.13;;;1.90;;
21438;SDS011;10880;50.302;18.736;2023-10-31T13:43:44;2.00;;;1.80;;
21438;SDS011;10880;50.302;18.736;2023-10-31T13:46:11;2.90;;;2.00;;
21438;SDS011;10880;50.302;18.736;2023-10-31T13:48:37;2.67;;;2.23;;
21438;SDS011;10880;50.302;18.736;2023-10-31T13:51:04;1.87;;;1.73;;
21438;SDS011;10880;50.302;18.736;2023-10-31T13:53:31;2.83;;;1.80;;
21438;SDS011;10880;50.302;18.736;2023-10-31T13:55:57;2.00;;;1.70;;
21438;SDS011;10880;50.302;18.736;2023-10-31T13:58:24;2.20;;;2.00;;
21438;SDS011;10880;50.302;18.736;2023-10-31T14:00:51;2.13;;;1.70;;
21438;SDS011;10880;50.302;18.736;2023-10-31T14:03:18;2.00;;;1.80;;
21438;SDS011;10880;50.302;18.736;2023-10-31T14:05:46;2.33;;;1.90;;
21438;SDS011;10880;50.302;18.736;2023-10-31T14:08:14;2.87;;;2.10;;
21438;SDS011;10880;50.302;18.736;2023-10-31T14:10:41;2.57;;;1.90;;
21438;SDS011;10880;50.302;18.736;2023-10-31T14:13:11;2.83;;;2.37;;
21438;SDS011;10880;50.302;18.736;2023-10-31T14:15:39;2.33;;;2.13;;
21438;SDS011;10880;50.302;18.736;2023-10-31T14:18:05;3.00;;;2.50;;
21438;SDS011;10880;50.302;18.736;2023-10-31T14:20:33;2.87;;;2.37;;
21438;SDS011;10880;50.302;18.736;2023-10-31T14:23:00;2.60;;;2.20;;
21438;SDS011;10880;50.302;18.736;2023-10-31T14:25:26;3.00;;;2.67;;
21438;SDS011;10880;50.302;18.736;2023-10-31T14:27:53;3.10;;;2.80;;
21438;SDS011;10880;50.302;18.736;2023-10-31T14:30:19;4.00;;;3.50;;
21438;SDS011;10880;50.302;18.736;2023-10-31T14:32:46;4.40;;;3.17;;
21438;SDS011;10880;50.302;18.736;2023-10-31T14:35:12;3.73;;;2.90;;
21438;SDS011;10880;50.302;18.736;2023-10-31T14:37:40;3.00;;;2.60;;
21438;SDS011;10880;50.302;18.736;2023-10-31T14:40:06;3.63;;;2.70;;